createdAt,value
2019-05-07T00:01:38.913Z,3.93
2019-05-07T00:07:52.081Z,3.98
2019-05-07T00:13:28.515Z,3.91
2019-05-07T00:15:58.203Z,3.94
2019-05-07T00:18:52.487Z,3.96
2019-05-07T00:21:14.783Z,3.99
2019-05-07T00:23:44.294Z,4.03
2019-05-07T00:26:13.761Z,4.02
2019-05-07T00:28:43.610Z,4.02
2019-05-07T00:31:13.505Z,4.00
2019-05-07T00:33:43.535Z,3.92
2019-05-07T00:45:48.543Z,3.67
2019-05-07T00:48:17.724Z,3.66
2019-05-07T00:50:48.578Z,3.61
2019-05-07T00:53:17.924Z,3.55
2019-05-07T00:55:47.485Z,3.57
2019-05-07T00:58:17.481Z,3.58
2019-05-07T01:00:47.370Z,3.57
2019-05-07T01:07:02.716Z,3.44
2019-05-07T01:09:32.446Z,3.40
2019-05-07T01:12:03.180Z,3.39
2019-05-07T01:14:32.749Z,3.35
2019-05-07T01:17:05.695Z,3.37
2019-05-07T01:19:35.367Z,3.44
2019-05-07T01:22:05.039Z,3.48
2019-05-07T01:24:34.883Z,3.50
2019-05-07T01:27:05.478Z,3.49
2019-05-07T01:29:35.225Z,3.47
2019-05-07T01:32:15.861Z,3.41
2019-05-07T01:34:53.980Z,3.29
2019-05-07T01:37:23.909Z,3.27
2019-05-07T01:39:53.139Z,3.27
2019-05-07T01:42:22.538Z,3.21
2019-05-07T01:44:53.078Z,3.23
2019-05-07T01:54:09.160Z,3.24
2019-05-07T01:56:38.649Z,3.34
2019-05-07T01:59:08.318Z,3.45
2019-05-07T02:01:55.329Z,3.52
2019-05-07T02:12:19.577Z,3.58
2019-05-07T02:18:29.795Z,3.52
2019-05-07T02:20:59.374Z,3.45
2019-05-07T02:23:29.514Z,3.42
2019-05-07T02:26:05.728Z,3.38
2019-05-07T02:28:35.284Z,3.32
2019-05-07T02:31:04.980Z,3.31
2019-05-07T02:33:35.356Z,3.29
2019-05-07T02:46:43.441Z,3.15
2019-05-07T02:49:35.876Z,3.11
2019-05-07T02:52:15.068Z,3.08
2019-05-07T02:57:37.454Z,3.03
2019-05-07T03:00:07.072Z,3.02
2019-05-07T03:02:36.693Z,2.95
2019-05-07T03:05:06.838Z,2.90
2019-05-07T03:07:36.079Z,2.88
2019-05-07T03:10:05.833Z,2.86
2019-05-07T03:12:35.553Z,2.80
2019-05-07T03:15:05.349Z,2.75
2019-05-07T03:17:34.726Z,2.72
2019-05-07T03:20:07.438Z,2.74
2019-05-07T03:22:37.203Z,2.76
2019-05-07T03:25:15.496Z,2.78
2019-05-07T03:27:44.882Z,2.74
2019-05-07T03:30:35.949Z,2.75
2019-05-07T03:37:06.633Z,2.69
2019-05-07T03:43:32.328Z,2.74
2019-05-07T03:46:13.763Z,2.74
2019-05-07T03:48:44.112Z,2.72
2019-05-07T03:51:13.860Z,2.73
2019-05-07T03:53:44.020Z,2.74
2019-05-07T03:56:23.428Z,2.74
2019-05-07T03:58:53.013Z,2.74
2019-05-07T04:01:24.051Z,2.76
2019-05-07T04:03:53.509Z,2.77
2019-05-07T04:06:23.515Z,2.80
2019-05-07T04:08:53.405Z,2.80
2019-05-07T04:11:23.315Z,2.44
2019-05-07T04:13:53.507Z,2.87
2019-05-07T04:16:24.092Z,2.86
2019-05-07T04:18:54.380Z,2.87
2019-05-07T04:21:23.949Z,2.85
2019-05-07T04:24:13.532Z,2.82
2019-05-07T04:26:45.788Z,2.82
2019-05-07T04:29:16.761Z,2.82
2019-05-07T04:31:46.276Z,2.86
2019-05-07T04:34:23.709Z,2.85
2019-05-07T04:36:53.620Z,2.89
2019-05-07T04:39:23.352Z,2.88
2019-05-07T04:41:57.437Z,2.95
2019-05-07T04:44:27.164Z,2.98
2019-05-07T04:46:59.364Z,3.00
2019-05-07T04:49:29.356Z,3.04
2019-05-07T04:55:33.177Z,3.15
2019-05-07T05:01:32.875Z,3.27
2019-05-07T05:07:30.279Z,3.47
2019-05-07T05:10:02.763Z,3.59
2019-05-07T05:12:32.775Z,3.70
2019-05-07T05:15:03.195Z,3.83
2019-05-07T05:17:46.245Z,3.95
2019-05-07T05:20:05.187Z,4.03
2019-05-07T05:23:09.534Z,4.17
2019-05-07T05:25:40.537Z,4.33
2019-05-07T05:28:12.367Z,4.59
2019-05-07T05:30:49.139Z,4.75
2019-05-07T05:33:23.257Z,4.94
2019-05-07T05:35:53.150Z,5.10
2019-05-07T05:38:22.815Z,5.21
2019-05-07T05:40:52.466Z,5.39
2019-05-07T05:43:44.404Z,5.55
2019-05-07T05:46:14.398Z,5.74
2019-05-07T05:48:44.362Z,5.99
2019-05-07T05:55:06.348Z,6.39
2019-05-07T05:57:54.542Z,6.66
2019-05-07T06:00:52.995Z,6.80
2019-05-07T06:07:08.808Z,7.10
2019-05-07T06:09:36.973Z,7.28
2019-05-07T06:12:25.377Z,7.37
2019-05-07T06:15:13.655Z,7.46
2019-05-07T06:17:58.827Z,7.56
2019-05-07T06:20:48.262Z,7.53
2019-05-07T06:23:26.031Z,7.69
2019-05-07T06:25:56.406Z,7.94
2019-05-07T06:28:34.068Z,8.19
2019-05-07T06:31:02.133Z,8.36
2019-05-07T06:33:32.528Z,8.44
2019-05-07T06:36:02.791Z,8.51
2019-05-07T06:38:37.043Z,8.65
2019-05-07T06:41:25.139Z,8.81
2019-05-07T06:44:02.104Z,8.94
2019-05-07T06:46:32.398Z,9.19
2019-05-07T06:49:02.285Z,9.36
2019-05-07T06:51:32.823Z,9.46
2019-05-07T06:54:02.902Z,9.62
2019-05-07T06:56:32.654Z,9.70
2019-05-07T06:59:07.389Z,9.95
2019-05-07T07:02:02.360Z,10.00
2019-05-07T07:04:42.336Z,10.17
2019-05-07T07:07:27.288Z,10.30
2019-05-07T07:10:07.208Z,10.38
2019-05-07T07:13:35.161Z,10.40
2019-05-07T07:20:28.713Z,10.40
2019-05-07T07:22:57.927Z,10.40
2019-05-07T07:25:27.275Z,10.87
2019-05-07T07:27:56.664Z,11.06
2019-05-07T07:30:54.741Z,11.09
2019-05-07T07:33:25.030Z,10.85
2019-05-07T07:36:02.707Z,11.04
2019-05-07T07:38:35.855Z,10.86
2019-05-07T07:41:23.748Z,10.52
2019-05-07T09:53:22.716Z,10.54
2019-05-07T09:55:52.355Z,10.54
2019-05-07T09:58:35.014Z,11.26
2019-05-07T10:00:53.984Z,10.92
2019-05-07T10:03:23.354Z,10.70
2019-05-07T10:05:52.683Z,10.30
2019-05-07T10:08:22.256Z,10.11
2019-05-07T10:10:53.189Z,9.91
2019-05-07T10:13:42.015Z,9.70
2019-05-07T10:16:12.783Z,9.61
2019-05-07T10:18:42.804Z,9.56
2019-05-07T10:21:12.746Z,9.64
2019-05-07T10:23:42.021Z,9.75
2019-05-07T10:26:12.182Z,9.98
2019-05-07T10:28:42.481Z,10.24
2019-05-07T10:31:12.160Z,10.69
2019-05-07T10:46:23.831Z,11.08
2019-05-07T14:59:26.961Z,11.08
2019-05-07T15:01:56.619Z,11.08
2019-05-07T15:04:25.916Z,12.59
2019-05-07T15:06:55.094Z,12.62
2019-05-07T15:09:24.628Z,12.68
2019-05-07T15:11:54.269Z,12.67
2019-05-07T15:14:29.086Z,12.58
2019-05-07T15:17:03.944Z,12.50
2019-05-07T15:19:33.888Z,12.42
2019-05-07T15:22:22.015Z,12.30
2019-05-07T15:24:52.489Z,12.05
2019-05-07T15:27:22.914Z,11.98
2019-05-07T15:29:52.789Z,12.01
2019-05-07T15:32:22.445Z,12.11
2019-05-07T15:34:52.686Z,12.20
2019-05-07T15:37:22.215Z,12.33
2019-05-07T15:39:52.669Z,12.42
2019-05-07T15:42:22.271Z,12.40
2019-05-07T15:44:52.815Z,12.34
2019-05-07T15:47:31.537Z,12.27
2019-05-07T15:50:02.185Z,12.23
2019-05-07T15:56:01.786Z,12.27
2019-05-07T15:58:32.250Z,12.28
2019-05-07T16:01:02.269Z,12.24
2019-05-07T16:03:37.118Z,12.18
2019-05-07T16:06:14.121Z,12.09
2019-05-07T16:08:56.927Z,11.97
2019-05-07T16:11:32.447Z,11.88
2019-05-07T16:14:27.871Z,11.78
2019-05-07T16:17:05.476Z,11.73
2019-05-07T16:19:34.967Z,11.64
2019-05-07T16:22:09.653Z,11.58
2019-05-07T19:14:33.673Z,8.21
2019-05-07T19:18:16.216Z,8.18
2019-05-07T20:28:06.094Z,7.01
2019-05-07T20:30:35.559Z,6.96
2019-05-07T20:33:05.098Z,6.97
2019-05-07T20:35:37.596Z,6.98
2019-05-07T20:38:05.266Z,6.99
2019-05-07T20:40:34.603Z,7.01
2019-05-07T20:43:05.683Z,7.03
2019-05-07T20:45:35.012Z,7.08
2019-05-07T20:48:04.444Z,7.09
2019-05-07T20:50:34.129Z,7.09
2019-05-07T20:53:03.186Z,7.10
2019-05-07T20:55:43.104Z,7.09
2019-05-07T20:58:12.910Z,7.11
2019-05-07T21:00:43.378Z,7.13
2019-05-07T21:03:23.846Z,7.14
2019-05-07T21:05:53.595Z,7.11
2019-05-07T21:08:23.114Z,7.12
2019-05-07T21:10:53.503Z,7.12
2019-05-07T21:13:30.965Z,7.13
2019-05-07T21:15:55.518Z,7.14
2019-05-07T21:18:25.373Z,7.14
2019-05-07T21:20:54.915Z,7.15
2019-05-07T21:23:24.417Z,7.16
2019-05-07T21:25:53.867Z,7.21
2019-05-07T21:28:23.365Z,7.21
2019-05-07T21:30:52.725Z,7.24
2019-05-07T21:33:29.251Z,7.25
2019-05-07T21:36:02.846Z,7.28
2019-05-07T21:38:33.066Z,7.28
2019-05-07T21:41:02.095Z,7.31
2019-05-07T21:43:32.657Z,7.32
2019-05-07T21:46:02.467Z,7.32
2019-05-07T21:48:33.520Z,7.35
2019-05-07T21:51:05.734Z,7.34
2019-05-07T21:54:31.286Z,7.35
2019-05-07T21:57:23.410Z,7.36
2019-05-07T22:00:12.764Z,7.34
2019-05-07T22:02:52.626Z,7.35
2019-05-07T22:05:22.511Z,7.35
2019-05-07T22:07:58.111Z,7.34
2019-05-07T22:10:27.887Z,7.34
2019-05-07T22:12:57.366Z,7.33
2019-05-07T22:15:26.865Z,7.31
2019-05-07T22:17:55.763Z,7.30
2019-05-07T22:20:24.814Z,7.29
2019-05-07T22:22:54.112Z,7.27
2019-05-07T22:25:23.247Z,7.25
2019-05-07T22:27:53.281Z,7.24
2019-05-07T22:30:29.799Z,7.21
2019-05-07T22:33:04.630Z,7.19
2019-05-07T22:35:37.727Z,7.18
2019-05-07T22:38:07.140Z,7.19
2019-05-07T22:40:37.808Z,7.20
2019-05-07T22:43:06.953Z,7.19
2019-05-07T22:45:37.271Z,7.19
2019-05-07T22:48:06.514Z,7.19
2019-05-07T22:50:35.863Z,7.21
2019-05-07T22:53:05.114Z,7.22
2019-05-07T22:55:34.407Z,7.20
2019-05-07T22:58:24.855Z,7.20
2019-05-07T23:00:58.113Z,7.21
2019-05-07T23:03:26.981Z,7.22
2019-05-07T23:05:58.406Z,7.23
2019-05-07T23:08:27.481Z,7.25
2019-05-07T23:10:56.413Z,7.24
2019-05-07T23:13:26.020Z,7.24
2019-05-07T23:15:55.074Z,7.24
2019-05-07T23:18:24.336Z,7.25
2019-05-07T23:20:54.033Z,7.27
2019-05-07T23:23:22.988Z,7.26
2019-05-07T23:25:53.032Z,7.24
2019-05-07T23:28:23.063Z,7.24
2019-05-07T23:30:52.035Z,7.23
2019-05-07T23:33:22.599Z,7.24
2019-05-07T23:35:52.758Z,7.22
2019-05-07T23:38:22.859Z,7.23
2019-05-07T23:41:29.323Z,7.21
2019-05-07T23:44:15.874Z,7.19
2019-05-07T23:46:45.286Z,7.16
2019-05-07T23:49:14.831Z,7.14
2019-05-07T23:51:44.322Z,7.11
2019-05-07T23:54:13.337Z,7.07
2019-05-07T23:56:42.911Z,7.07
2019-05-07T23:59:12.769Z,7.04
